Time;durP1;ratioP1;P1;durP2;ratioP2;P2;SDS_P1;SDS_P2;PMS_P1;PMS_P2;Temp;Humidity;BMP_temperature;BMP_pressure;BME280_temperature;BME280_humidity;BME280_pressure;Samples;Min_cycle;Max_cycle;Signal;HPM_P1;HPM_P2
2023/10/14 00:01:41;;;;;;;2.50;0.50;;;23.10;82.60;;;;;;5071902;28;20563;-83
2023/10/14 00:04:21;;;;;;;0.82;0.40;;;23.20;81.70;;;;;;5072157;28;20202;-83
2023/10/14 00:06:54;;;;;;;1.35;0.45;;;23.20;82.30;;;;;;5070490;28;20268;-83
2023/10/14 00:09:33;;;;;;;2.65;0.40;;;23.30;78.90;;;;;;5070049;28;20215;-82
2023/10/14 00:12:13;;;;;;;1.85;0.43;;;23.10;79.20;;;;;;5061045;28;20319;-82
2023/10/14 00:15:03;;;;;;;1.65;0.60;;;23.20;80.00;;;;;;5073123;28;20325;-82
2023/10/14 00:17:41;;;;;;;1.02;0.45;;;23.20;78.00;;;;;;5072975;28;20446;-81
2023/10/14 00:20:15;;;;;;;2.00;0.60;;;23.20;77.70;;;;;;5073255;28;20623;-82
2023/10/14 00:22:52;;;;;;;0.68;0.40;;;23.30;77.10;;;;;;5073526;28;20551;-82
2023/10/14 00:25:28;;;;;;;0.70;0.43;;;23.50;77.70;;;;;;5073169;28;20586;-83
2023/10/14 00:28:01;;;;;;;1.20;0.35;;;23.70;76.30;;;;;;5073139;28;20562;-83
2023/10/14 00:30:34;;;;;;;1.80;0.43;;;23.80;74.90;;;;;;5060937;28;20291;-84
2023/10/14 00:33:05;;;;;;;0.45;0.20;;;23.70;74.00;;;;;;5062461;28;20300;-84
2023/10/14 00:35:41;;;;;;;0.38;0.28;;;23.80;75.00;;;;;;5064446;28;20779;-83
2023/10/14 00:38:17;;;;;;;0.22;0.20;;;24.00;74.90;;;;;;5060384;28;20208;-83
2023/10/14 00:40:49;;;;;;;0.85;0.20;;;24.10;71.80;;;;;;5059582;28;20254;-83
2023/10/14 00:43:23;;;;;;;1.92;0.32;;;24.10;74.20;;;;;;5061462;28;20215;-83
2023/10/14 00:45:57;;;;;;;1.10;0.40;;;24.10;71.30;;;;;;5078250;28;20550;-83
2023/10/14 00:48:33;;;;;;;0.85;0.20;;;24.10;73.10;;;;;;5079701;28;20598;-82
2023/10/14 00:51:10;;;;;;;1.02;0.20;;;24.20;71.20;;;;;;5060744;28;20236;-83
2023/10/14 00:53:55;;;;;;;1.98;0.30;;;24.50;71.60;;;;;;5048829;28;20191;-83
2023/10/14 00:56:40;;;;;;;0.28;0.20;;;24.70;69.40;;;;;;5080350;28;20231;-83
2023/10/14 00:59:19;;;;;;;1.67;0.40;;;24.70;67.70;;;;;;5082802;28;20200;-83
2023/10/14 01:01:55;;;;;;;2.45;0.13;;;24.90;69.00;;;;;;5080890;28;20196;-83
2023/10/14 01:04:32;;;;;;;1.95;0.20;;;25.00;67.20;;;;;;5079811;28;20576;-84
2023/10/14 01:07:13;;;;;;;0.22;0.20;;;25.10;63.00;;;;;;5061757;28;20232;-83
2023/10/14 01:09:53;;;;;;;0.85;0.10;;;25.00;62.40;;;;;;5062716;28;20254;-84
2023/10/14 01:12:38;;;;;;;0.22;0.20;;;25.00;62.00;;;;;;5058171;28;20196;-83
2023/10/14 01:15:23;;;;;;;2.53;0.30;;;25.20;61.70;;;;;;5080157;28;20278;-82
2023/10/14 01:17:56;;;;;;;3.05;0.30;;;25.40;60.20;;;;;;5084632;28;20275;-82
2023/10/14 01:20:37;;;;;;;0.98;0.25;;;25.50;59.30;;;;;;5080380;28;20214;-82
2023/10/14 01:23:18;;;;;;;0.68;0.20;;;25.70;58.80;;;;;;5085193;28;20568;-84
2023/10/14 01:25:52;;;;;;;0.22;0.10;;;25.70;58.40;;;;;;5089227;28;20733;-84
2023/10/14 01:28:29;;;;;;;0.45;0.20;;;25.90;57.70;;;;;;5086511;28;20236;-83
2023/10/14 01:31:40;;;;;;;0.50;0.20;;;25.90;57.20;;;;;;5082878;28;20227;-83
2023/10/14 01:34:28;;;;;;;0.30;0.20;;;26.00;57.20;;;;;;5082584;28;20195;-83
2023/10/14 01:37:12;;;;;;;1.75;0.30;;;26.10;56.10;;;;;;5085890;28;20215;-82
2023/10/14 01:39:56;;;;;;;0.30;0.30;;;26.30;56.10;;;;;;5075565;28;20401;-82
2023/10/14 01:42:30;;;;;;;0.65;0.40;;;26.40;55.70;;;;;;5074158;28;20204;-82
2023/10/14 01:45:06;;;;;;;0.52;0.32;;;26.50;55.50;;;;;;5074704;28;20200;-82
2023/10/14 01:47:49;;;;;;;0.85;0.35;;;26.60;55.30;;;;;;5074467;28;20215;-82
2023/10/14 01:50:23;;;;;;;0.65;0.40;;;26.60;55.10;;;;;;5074159;28;20540;-82
2023/10/14 01:53:00;;;;;;;1.90;0.40;;;26.70;55.80;;;;;;5074052;28;20281;-83
2023/10/14 01:55:35;;;;;;;0.38;0.30;;;26.50;56.20;;;;;;5073903;28;20200;-83
2023/10/14 01:58:22;;;;;;;0.63;0.30;;;26.50;54.50;;;;;;5073939;28;20207;-82
2023/10/14 02:00:58;;;;;;;0.35;0.30;;;26.40;55.20;;;;;;5074369;28;20290;-82
2023/10/14 02:03:33;;;;;;;0.70;0.50;;;26.60;55.30;;;;;;5073410;28;20210;-81
2023/10/14 02:06:11;;;;;;;1.25;0.60;;;26.70;54.90;;;;;;5073945;28;20602;-83
2023/10/14 02:08:48;;;;;;;1.40;0.30;;;26.90;55.50;;;;;;5053571;28;20211;-81
2023/10/14 02:11:26;;;;;;;1.42;0.50;;;27.00;56.00;;;;;;5053303;28;20232;-83
2023/10/14 02:14:02;;;;;;;2.53;0.85;;;27.00;54.80;;;;;;5054032;28;20266;-83
2023/10/14 02:16:47;;;;;;;4.43;2.25;;;26.90;55.20;;;;;;5054297;28;20282;-83
2023/10/14 02:19:21;;;;;;;0.88;0.40;;;26.90;54.90;;;;;;5054290;28;20283;-83
2023/10/14 02:21:57;;;;;;;0.73;0.52;;;27.10;55.40;;;;;;5052994;28;20310;-82
2023/10/14 02:24:31;;;;;;;1.05;0.63;;;27.40;55.20;;;;;;5053110;28;20553;-83
2023/10/14 02:27:11;;;;;;;1.70;0.40;;;27.60;55.10;;;;;;5053638;28;20282;-83
2023/10/14 02:29:49;;;;;;;0.45;0.32;;;27.60;54.40;;;;;;5041804;28;20274;-83
2023/10/14 02:32:21;;;;;;;1.50;0.40;;;27.60;54.10;;;;;;5055174;28;20291;-82
2023/10/14 02:34:55;;;;;;;0.68;0.50;;;27.80;54.90;;;;;;5056426;28;20200;-82
2023/10/14 02:37:30;;;;;;;0.60;0.50;;;27.90;54.00;;;;;;5056674;28;20204;-83
2023/10/14 02:40:10;;;;;;;0.90;0.50;;;27.80;53.70;;;;;;5054375;28;20231;-83
2023/10/14 02:42:50;;;;;;;0.50;0.50;;;27.90;53.90;;;;;;5053405;28;20200;-82
2023/10/14 02:45:23;;;;;;;0.65;0.40;;;27.90;54.00;;;;;;5052920;28;20318;-82
2023/10/14 02:48:01;;;;;;;1.33;0.63;;;28.00;54.20;;;;;;5053671;28;20208;-82
2023/10/14 02:50:34;;;;;;;1.00;0.55;;;28.10;53.10;;;;;;5052853;28;20224;-82
2023/10/14 02:53:21;;;;;;;1.75;0.50;;;28.10;53.40;;;;;;5053303;28;20808;-82
2023/10/14 02:56:04;;;;;;;1.30;0.40;;;28.20;53.30;;;;;;5052546;28;20189;-84
2023/10/14 02:58:42;;;;;;;0.52;0.40;;;28.40;53.80;;;;;;5042941;28;20208;-85
2023/10/14 03:01:23;;;;;;;0.55;0.40;;;28.60;53.70;;;;;;5054203;28;20631;-84
2023/10/14 03:04:06;;;;;;;0.63;0.60;;;28.90;53.00;;;;;;5054199;28;20608;-86
2023/10/14 03:06:53;;;;;;;0.85;0.50;;;29.00;52.60;;;;;;5047407;28;20753;-84
2023/10/14 03:09:33;;;;;;;1.13;0.60;;;29.20;50.50;;;;;;5057103;28;20571;-85
2023/10/14 03:12:06;;;;;;;0.85;0.50;;;29.20;50.00;;;;;;5067065;28;20200;-84
2023/10/14 03:14:49;;;;;;;0.90;0.60;;;29.40;50.50;;;;;;5076903;28;20227;-84
2023/10/14 03:17:25;;;;;;;1.52;0.77;;;29.50;49.90;;;;;;5074908;28;20269;-84
2023/10/14 03:19:57;;;;;;;1.55;0.65;;;29.60;49.30;;;;;;5077192;28;20207;-85
2023/10/14 03:22:38;;;;;;;3.15;0.80;;;29.60;49.20;;;;;;5076201;28;20200;-85
2023/10/14 03:25:15;;;;;;;0.60;0.60;;;29.80;49.70;;;;;;5076110;28;20223;-85
2023/10/14 03:27:49;;;;;;;1.75;0.70;;;29.90;48.50;;;;;;5070847;28;20688;-83
2023/10/14 03:30:24;;;;;;;0.98;0.50;;;29.60;48.60;;;;;;5074280;28;20219;-83
2023/10/14 03:32:58;;;;;;;0.82;0.50;;;29.60;48.70;;;;;;5075128;28;20200;-85
2023/10/14 03:35:32;;;;;;;1.70;0.65;;;29.70;48.70;;;;;;5075577;28;20227;-84
2023/10/14 03:38:14;;;;;;;1.88;0.63;;;30.00;49.10;;;;;;5074361;28;20215;-85
2023/10/14 03:41:02;;;;;;;0.63;0.52;;;30.10;48.60;;;;;;5075574;28;20220;-84
2023/10/14 03:43:44;;;;;;;0.73;0.50;;;30.30;48.00;;;;;;5076732;28;20202;-86
2023/10/14 03:49:20;;;;;;;2.47;0.60;;;30.30;46.30;;;;;;5061930;28;20210;-83
2023/10/14 03:51:54;;;;;;;0.57;0.50;;;30.40;47.00;;;;;;5073802;28;20264;-86
2023/10/14 03:54:28;;;;;;;0.80;0.63;;;30.50;46.20;;;;;;5074230;28;20279;-85
2023/10/14 03:57:03;;;;;;;0.75;0.65;;;30.50;45.80;;;;;;5073706;28;20192;-86
2023/10/14 03:59:47;;;;;;;1.40;0.70;;;30.60;45.00;;;;;;5074541;28;20235;-85
2023/10/14 04:02:25;;;;;;;0.60;0.60;;;30.60;44.30;;;;;;5077477;28;20744;-85
2023/10/14 04:05:09;;;;;;;2.90;1.33;;;30.60;42.50;;;;;;5055800;28;20294;-86
2023/10/14 04:07:46;;;;;;;1.67;0.70;;;30.40;42.40;;;;;;5069157;28;20227;-86
2023/10/14 04:10:23;;;;;;;0.65;0.50;;;30.30;42.60;;;;;;5074367;28;20334;-89
2023/10/14 04:13:04;;;;;;;0.60;0.60;;;30.40;42.40;;;;;;5074617;28;20674;-86
2023/10/14 04:15:46;;;;;;;2.78;1.48;;;30.60;41.30;;;;;;5053527;28;20216;-87
2023/10/14 04:18:27;;;;;;;1.10;0.95;;;30.60;39.50;;;;;;5055448;28;20570;-87
2023/10/14 04:26:36;;;;;;;1.35;0.88;;;30.20;38.90;;;;;;5066844;28;20191;-85
2023/10/14 04:29:34;;;;;;;2.17;1.50;;;30.00;38.50;;;;;;5071837;28;20493;-84
2023/10/14 04:32:13;;;;;;;0.98;0.73;;;30.20;38.90;;;;;;5064763;28;20248;-84
2023/10/14 04:34:57;;;;;;;2.08;0.80;;;30.60;40.50;;;;;;5072810;28;20199;-84
2023/10/14 04:37:50;;;;;;;1.33;0.85;;;31.00;38.70;;;;;;5060155;28;20211;-82
2023/10/14 04:40:36;;;;;;;0.70;0.70;;;30.80;37.40;;;;;;5065700;28;20263;-83
2023/10/14 04:43:49;;;;;;;1.48;0.80;;;30.60;37.50;;;;;;5077350;28;20538;-84
2023/10/14 04:46:32;;;;;;;0.98;0.80;;;30.70;37.30;;;;;;5075396;28;20234;-84
2023/10/14 04:49:08;;;;;;;0.73;0.73;;;30.90;37.50;;;;;;5074276;28;20682;-83
2023/10/14 04:51:48;;;;;;;5.03;0.77;;;31.20;37.30;;;;;;5073717;28;20227;-83
2023/10/14 04:54:23;;;;;;;0.77;0.70;;;31.40;37.00;;;;;;5077117;28;20203;-84
2023/10/14 04:56:57;;;;;;;2.05;1.00;;;31.50;36.90;;;;;;5073961;28;20206;-82
2023/10/14 04:59:30;;;;;;;0.80;0.80;;;31.50;37.60;;;;;;5074739;28;20209;-81
2023/10/14 05:02:02;;;;;;;2.38;0.80;;;31.70;37.30;;;;;;5078544;28;20187;-83
2023/10/14 05:04:41;;;;;;;2.40;0.88;;;31.90;37.70;;;;;;5074024;28;20200;-83
2023/10/14 05:07:17;;;;;;;1.85;0.85;;;32.00;37.20;;;;;;5074518;28;20224;-82
2023/10/14 05:10:07;;;;;;;1.23;0.70;;;31.50;36.90;;;;;;5075065;28;20205;-81
2023/10/14 05:12:40;;;;;;;1.05;0.80;;;31.70;36.50;;;;;;5075276;28;20343;-82
2023/10/14 05:15:20;;;;;;;2.95;0.82;;;31.80;37.30;;;;;;5053952;28;20207;-82
2023/10/14 05:17:53;;;;;;;1.00;0.90;;;32.10;35.70;;;;;;5062572;28;20220;-83
2023/10/14 05:20:29;;;;;;;2.55;0.90;;;32.10;35.20;;;;;;5076731;28;20258;-83
2023/10/14 05:23:07;;;;;;;0.90;0.90;;;32.20;35.20;;;;;;5080906;28;20207;-83
2023/10/14 05:25:43;;;;;;;1.08;0.80;;;32.10;34.00;;;;;;5058758;28;20680;-82
2023/10/14 05:28:17;;;;;;;2.13;0.77;;;32.00;33.90;;;;;;5060186;28;20620;-82
2023/10/14 05:30:55;;;;;;;1.10;0.80;;;31.60;33.60;;;;;;5078187;28;20616;-80
2023/10/14 05:33:27;;;;;;;2.75;1.05;;;31.20;34.30;;;;;;5076980;28;20192;-81
2023/10/14 05:36:01;;;;;;;1.00;0.75;;;30.90;33.90;;;;;;5076792;28;20261;-81
2023/10/14 05:38:41;;;;;;;0.50;0.50;;;30.90;34.40;;;;;;5081817;28;20196;-80
2023/10/14 05:41:16;;;;;;;1.85;0.80;;;31.20;34.60;;;;;;5079958;28;20659;-80
2023/10/14 05:43:47;;;;;;;1.08;0.60;;;31.40;34.50;;;;;;5089839;28;20200;-81
2023/10/14 05:46:21;;;;;;;1.00;0.90;;;31.50;34.80;;;;;;5078767;28;20192;-80
2023/10/14 05:48:53;;;;;;;1.05;0.70;;;31.60;34.80;;;;;;5079132;28;20574;-81
2023/10/14 05:51:25;;;;;;;2.70;0.75;;;31.60;34.40;;;;;;5077362;28;20224;-79
2023/10/14 05:53:59;;;;;;;2.28;0.95;;;31.00;34.50;;;;;;5077808;28;20203;-80
2023/10/14 05:56:34;;;;;;;2.75;0.88;;;30.00;35.70;;;;;;5077666;28;20203;-80
2023/10/14 05:59:06;;;;;;;0.80;0.73;;;30.10;35.90;;;;;;5079591;28;20201;-78
2023/10/14 06:01:38;;;;;;;2.25;0.95;;;30.10;36.20;;;;;;5076849;28;20200;-80
2023/10/14 06:04:12;;;;;;;0.75;0.60;;;29.70;37.20;;;;;;5079869;28;20229;-81
2023/10/14 06:06:49;;;;;;;0.80;0.80;;;29.50;37.10;;;;;;5078621;28;20231;-81
2023/10/14 06:09:22;;;;;;;2.40;0.95;;;29.40;37.10;;;;;;5081543;28;20222;-80
2023/10/14 06:11:54;;;;;;;0.85;0.82;;;28.90;38.10;;;;;;5083411;28;20230;-79
2023/10/14 06:14:29;;;;;;;0.80;0.80;;;28.80;38.40;;;;;;5064173;28;20260;-79
2023/10/14 06:17:01;;;;;;;1.05;0.85;;;28.80;38.30;;;;;;5064829;28;20215;-80
2023/10/14 06:19:35;;;;;;;0.82;0.80;;;28.70;38.90;;;;;;5081651;28;20224;-80
2023/10/14 06:22:08;;;;;;;2.33;1.27;;;28.80;38.80;;;;;;5084564;28;20211;-80
2023/10/14 06:24:41;;;;;;;3.00;1.10;;;28.90;39.20;;;;;;5087986;28;20931;-79
2023/10/14 06:27:20;;;;;;;1.55;1.30;;;28.80;38.60;;;;;;5084680;28;20207;-79
2023/10/14 06:29:55;;;;;;;1.98;1.77;;;28.90;38.90;;;;;;5079506;28;20234;-80
2023/10/14 06:32:26;;;;;;;3.97;2.30;;;28.80;38.70;;;;;;5075040;28;20597;-80
2023/10/14 06:35:02;;;;;;;1.55;0.90;;;28.80;38.90;;;;;;5073233;28;20196;-79
2023/10/14 06:37:42;;;;;;;3.65;2.03;;;28.70;38.50;;;;;;5076325;28;20224;-80
2023/10/14 06:40:19;;;;;;;1.00;0.85;;;28.40;39.10;;;;;;5055497;28;20614;-80
2023/10/14 06:42:56;;;;;;;3.50;2.72;;;28.40;40.00;;;;;;5064274;28;20204;-80
2023/10/14 06:45:31;;;;;;;4.13;1.63;;;28.20;40.00;;;;;;5084075;28;20730;-81
2023/10/14 06:48:09;;;;;;;5.53;3.53;;;28.00;40.00;;;;;;5075219;28;20199;-81
2023/10/14 06:50:47;;;;;;;1.90;1.30;;;27.80;40.50;;;;;;5075661;28;20618;-80
2023/10/14 06:53:20;;;;;;;5.20;2.00;;;27.80;40.80;;;;;;5076980;28;20271;-79
2023/10/14 06:56:04;;;;;;;2.08;1.23;;;27.70;41.20;;;;;;5077920;28;20180;-78
2023/10/14 06:58:39;;;;;;;3.65;2.00;;;27.50;41.30;;;;;;5075974;28;20259;-81
2023/10/14 07:01:10;;;;;;;1.35;1.00;;;27.50;42.20;;;;;;5056991;28;20215;-79
2023/10/14 07:03:42;;;;;;;2.42;1.58;;;27.50;41.50;;;;;;5072434;28;20294;-80
2023/10/14 07:06:13;;;;;;;1.75;1.15;;;27.30;41.90;;;;;;5073205;28;20200;-79
2023/10/14 07:08:48;;;;;;;7.82;3.28;;;27.30;42.20;;;;;;5073211;28;20200;-79
2023/10/14 07:11:22;;;;;;;7.28;3.50;;;27.30;42.30;;;;;;5055992;28;20203;-80
2023/10/14 07:13:53;;;;;;;3.58;2.08;;;27.30;42.70;;;;;;5073043;28;20282;-80
2023/10/14 07:16:25;;;;;;;7.78;3.58;;;27.20;42.80;;;;;;5072889;28;20605;-80
2023/10/14 07:18:56;;;;;;;2.88;1.73;;;27.20;43.00;;;;;;5072466;28;20281;-80
2023/10/14 07:21:29;;;;;;;4.38;2.13;;;27.20;43.00;;;;;;5073156;28;20210;-80
2023/10/14 07:24:05;;;;;;;2.60;1.50;;;27.10;43.20;;;;;;5073792;28;20228;-80
2023/10/14 07:26:39;;;;;;;2.65;1.35;;;27.10;43.50;;;;;;5073514;28;20184;-81
2023/10/14 07:29:11;;;;;;;2.58;1.48;;;27.10;43.60;;;;;;5073905;28;20200;-81
2023/10/14 07:31:44;;;;;;;2.50;1.45;;;27.10;44.00;;;;;;5064894;28;20307;-81
2023/10/14 07:34:19;;;;;;;2.90;2.20;;;27.00;43.50;;;;;;5067484;28;20198;-83
2023/10/14 07:36:53;;;;;;;7.72;4.82;;;27.00;43.90;;;;;;5075015;28;20689;-80
2023/10/14 07:39:30;;;;;;;5.35;2.33;;;27.00;43.80;;;;;;5075887;28;20199;-79
2023/10/14 07:42:09;;;;;;;1.50;1.40;;;26.90;43.80;;;;;;5075436;28;20203;-80
2023/10/14 07:44:41;;;;;;;2.08;1.40;;;26.90;44.30;;;;;;5074888;28;20911;-80
2023/10/14 07:47:14;;;;;;;2.13;1.30;;;26.90;44.30;;;;;;5073341;28;20214;-81
2023/10/14 07:49:57;;;;;;;2.67;1.80;;;26.90;44.40;;;;;;5071343;28;20203;-82
2023/10/14 07:52:31;;;;;;;1.95;1.55;;;26.90;44.30;;;;;;5070393;28;20228;-82
2023/10/14 07:55:04;;;;;;;3.47;1.30;;;26.80;44.70;;;;;;5070860;28;20214;-81
2023/10/14 07:57:40;;;;;;;4.00;2.00;;;26.80;43.00;;;;;;5070851;28;20258;-82
2023/10/14 08:00:14;;;;;;;1.80;1.00;;;26.70;42.00;;;;;;5071626;28;20298;-82
2023/10/14 08:02:51;;;;;;;2.40;2.00;;;26.70;42.40;;;;;;5072057;28;20210;-82
2023/10/14 08:05:28;;;;;;;3.42;2.25;;;26.70;42.50;;;;;;5071407;28;20249;-81
2023/10/14 08:08:06;;;;;;;2.65;2.33;;;26.70;42.80;;;;;;5070046;28;20295;-81
2023/10/14 08:10:42;;;;;;;1.45;1.35;;;26.60;42.90;;;;;;5071495;28;20206;-80
2023/10/14 08:13:23;;;;;;;6.65;3.85;;;26.50;42.40;;;;;;5051628;28;20690;-82
2023/10/14 08:15:57;;;;;;;4.30;2.30;;;26.50;42.60;;;;;;5054557;28;21895;-81
2023/10/14 08:18:31;;;;;;;3.40;1.90;;;26.40;42.80;;;;;;5062787;28;20278;-81
2023/10/14 08:21:03;;;;;;;7.38;3.50;;;26.40;43.30;;;;;;5056449;28;20196;-81
2023/10/14 08:23:38;;;;;;;5.03;2.60;;;26.30;43.20;;;;;;5074482;28;20204;-81
2023/10/14 08:26:13;;;;;;;5.82;4.05;;;26.20;44.00;;;;;;5073777;28;20212;-82
2023/10/14 08:28:59;;;;;;;5.03;3.40;;;26.20;43.60;;;;;;5073861;28;20210;-82
2023/10/14 08:31:37;;;;;;;2.83;2.33;;;26.20;43.70;;;;;;5073004;28;20228;-82
2023/10/14 08:34:25;;;;;;;4.13;1.75;;;26.10;44.00;;;;;;5094382;28;20196;-82
2023/10/14 08:36:58;;;;;;;3.45;2.28;;;26.10;44.20;;;;;;5079412;28;20196;-81
2023/10/14 08:39:31;;;;;;;3.70;2.30;;;26.10;44.40;;;;;;5080263;28;20205;-80
2023/10/14 08:42:06;;;;;;;6.57;4.13;;;26.00;44.80;;;;;;5081135;28;20199;-81
2023/10/14 08:44:58;;;;;;;3.67;2.33;;;26.00;44.40;;;;;;5081117;28;20175;-81
2023/10/14 08:47:34;;;;;;;5.15;3.13;;;26.00;44.40;;;;;;5080145;28;20200;-81
2023/10/14 08:50:15;;;;;;;2.60;2.10;;;26.00;44.90;;;;;;5070634;28;20197;-82
2023/10/14 08:52:56;;;;;;;2.63;2.40;;;25.90;45.00;;;;;;5066362;28;20283;-82
2023/10/14 08:55:34;;;;;;;4.40;4.00;;;25.80;45.30;;;;;;5080708;28;20199;-82
2023/10/14 08:58:15;;;;;;;6.07;5.45;;;25.80;45.70;;;;;;5080471;28;20555;-81
2023/10/14 09:01:01;;;;;;;3.85;3.10;;;25.70;46.40;;;;;;5080101;28;20188;-82
2023/10/14 09:03:36;;;;;;;5.55;2.30;;;25.70;46.80;;;;;;5081945;28;20200;-81
2023/10/14 09:06:09;;;;;;;2.10;1.90;;;25.70;46.80;;;;;;5082186;28;20241;-81
2023/10/14 09:08:49;;;;;;;2.47;1.70;;;25.70;47.50;;;;;;5059946;28;20671;-81
2023/10/14 09:11:36;;;;;;;1.92;1.40;;;25.60;47.00;;;;;;5055197;28;20199;-81
2023/10/14 09:14:14;;;;;;;2.05;1.35;;;25.60;47.40;;;;;;5054220;28;20683;-82
2023/10/14 09:16:54;;;;;;;1.30;1.10;;;25.50;48.00;;;;;;5054589;28;20291;-82
2023/10/14 09:19:53;;;;;;;1.42;1.30;;;25.40;48.30;;;;;;5052918;28;20299;-82
2023/10/14 09:22:33;;;;;;;1.40;1.15;;;25.40;48.60;;;;;;5053819;28;20212;-80
2023/10/14 09:25:07;;;;;;;1.85;1.27;;;25.30;48.90;;;;;;5051745;28;20193;-81
2023/10/14 09:27:42;;;;;;;1.58;1.27;;;25.30;49.30;;;;;;5054302;28;20205;-81
2023/10/14 09:30:18;;;;;;;2.15;1.90;;;25.20;49.60;;;;;;5054396;28;20197;-81
2023/10/14 09:32:56;;;;;;;4.50;2.20;;;25.20;49.80;;;;;;5054592;28;20227;-81
2023/10/14 09:35:34;;;;;;;2.42;1.77;;;25.20;50.10;;;;;;5053906;28;20649;-82
2023/10/14 09:38:08;;;;;;;1.58;1.42;;;25.10;50.30;;;;;;5058230;28;20651;-81
2023/10/14 09:40:42;;;;;;;2.35;1.90;;;25.10;50.10;;;;;;5055162;28;20195;-81
2023/10/14 09:43:18;;;;;;;4.50;2.00;;;25.00;50.10;;;;;;5054495;28;20262;-82
2023/10/14 09:46:12;;;;;;;4.32;2.15;;;25.10;50.00;;;;;;5057183;28;20201;-82
2023/10/14 09:49:03;;;;;;;5.78;2.97;;;25.00;50.00;;;;;;5080296;28;20205;-81
2023/10/14 09:51:35;;;;;;;2.90;2.22;;;25.10;50.10;;;;;;5053183;28;20289;-82
2023/10/14 09:54:10;;;;;;;3.97;2.60;;;25.00;50.50;;;;;;5062541;28;20191;-82
2023/10/14 09:56:43;;;;;;;2.72;2.20;;;24.90;51.10;;;;;;5063436;28;20188;-83
2023/10/14 09:59:15;;;;;;;3.58;2.10;;;24.90;51.50;;;;;;5064699;28;20595;-82
2023/10/14 10:01:56;;;;;;;3.65;1.63;;;24.90;51.30;;;;;;5056070;28;20687;-82
2023/10/14 10:04:38;;;;;;;2.63;1.58;;;24.80;51.40;;;;;;5055024;28;20196;-80
2023/10/14 10:07:23;;;;;;;2.33;1.63;;;24.70;51.90;;;;;;5053125;28;20234;-80
2023/10/14 10:10:22;;;;;;;4.65;2.00;;;24.70;51.80;;;;;;5072376;28;20200;-80
2023/10/14 10:12:59;;;;;;;2.53;1.90;;;24.70;51.70;;;;;;5065778;28;20227;-81
2023/10/14 10:15:38;;;;;;;3.22;1.70;;;24.60;51.60;;;;;;5074150;28;20195;-81
2023/10/14 10:18:22;;;;;;;3.35;1.55;;;24.60;51.70;;;;;;5068998;28;20216;-81
2023/10/14 10:20:56;;;;;;;2.35;1.50;;;24.60;51.80;;;;;;5053326;28;20205;-81
2023/10/14 10:23:30;;;;;;;4.85;1.40;;;24.50;51.60;;;;;;5068157;28;20656;-82
2023/10/14 10:26:03;;;;;;;2.90;1.88;;;24.50;51.90;;;;;;5074509;28;20237;-82
2023/10/14 10:28:52;;;;;;;5.15;2.35;;;24.50;51.90;;;;;;5078436;28;20179;-82
2023/10/14 10:34:38;;;;;;;2.55;1.48;;;24.40;52.40;;;;;;5089931;28;20202;-80
2023/10/14 10:37:29;;;;;;;2.95;1.90;;;24.30;52.60;;;;;;5092526;28;20275;-82
2023/10/14 10:40:05;;;;;;;1.77;1.60;;;24.30;53.20;;;;;;5085046;28;20174;-82
2023/10/14 10:42:41;;;;;;;2.17;1.63;;;24.30;53.40;;;;;;5083733;28;20598;-83
2023/10/14 10:45:20;;;;;;;4.63;1.77;;;24.20;53.40;;;;;;5064875;28;20200;-81
2023/10/14 10:47:57;;;;;;;1.95;1.35;;;24.20;53.50;;;;;;5081364;28;20196;-83
2023/10/14 10:50:36;;;;;;;2.40;1.83;;;24.10;53.90;;;;;;5092211;28;20210;-81
2023/10/14 10:53:29;;;;;;;1.83;1.50;;;24.20;54.10;;;;;;5078724;28;20261;-81
2023/10/14 10:59:21;;;;;;;2.72;1.50;;;24.10;54.00;;;;;;5076133;28;20556;-82
2023/10/14 11:02:11;;;;;;;2.10;1.58;;;24.10;54.40;;;;;;5082193;28;20257;-82
2023/10/14 11:04:43;;;;;;;2.60;1.20;;;24.00;54.00;;;;;;5078311;28;20172;-82
2023/10/14 11:07:23;;;;;;;2.20;1.20;;;24.10;53.60;;;;;;5082266;28;20272;-81
2023/10/14 11:10:03;;;;;;;2.05;1.20;;;24.00;53.60;;;;;;5078006;28;20188;-80
2023/10/14 11:12:37;;;;;;;2.53;1.05;;;23.90;53.80;;;;;;5062102;28;20228;-81
2023/10/14 11:15:20;;;;;;;1.85;1.25;;;23.90;53.90;;;;;;5069884;28;20204;-81
2023/10/14 11:17:59;;;;;;;1.17;1.08;;;23.90;54.30;;;;;;5080598;28;20216;-82
2023/10/14 11:20:37;;;;;;;1.38;1.10;;;23.90;54.70;;;;;;5082050;28;20199;-82
2023/10/14 11:23:10;;;;;;;1.63;1.08;;;23.90;55.00;;;;;;5082746;28;20218;-82
2023/10/14 11:25:54;;;;;;;2.00;1.20;;;23.90;55.30;;;;;;5086006;28;20655;-82
2023/10/14 11:28:32;;;;;;;1.13;1.02;;;23.80;55.50;;;;;;5084291;28;20203;-82
2023/10/14 11:31:07;;;;;;;1.65;1.02;;;23.80;55.60;;;;;;5079629;28;20588;-81
2023/10/14 11:33:39;;;;;;;1.73;1.20;;;23.80;55.80;;;;;;5065844;28;20258;-80
2023/10/14 11:36:17;;;;;;;1.35;0.98;;;23.70;55.90;;;;;;5076458;28;20651;-82
2023/10/14 11:39:06;;;;;;;2.38;1.23;;;23.70;56.10;;;;;;5091940;28;20472;-81
2023/10/14 11:41:46;;;;;;;1.83;1.45;;;23.70;56.40;;;;;;5082025;28;20208;-82
2023/10/14 11:44:31;;;;;;;1.38;1.27;;;23.60;56.90;;;;;;5077536;28;20196;-82
2023/10/14 11:47:16;;;;;;;2.85;1.17;;;23.60;57.00;;;;;;5086354;28;20207;-81
2023/10/14 11:50:00;;;;;;;2.55;1.38;;;23.50;56.30;;;;;;5089604;28;20214;-81
2023/10/14 11:52:38;;;;;;;1.50;1.20;;;23.60;56.40;;;;;;5081486;28;20679;-81
2023/10/14 11:55:25;;;;;;;1.88;1.10;;;23.50;56.10;;;;;;5070776;28;20248;-83
2023/10/14 11:58:16;;;;;;;2.05;1.33;;;23.40;56.20;;;;;;5076064;28;20201;-82
2023/10/14 12:00:48;;;;;;;2.20;1.20;;;23.30;56.20;;;;;;5080072;28;20227;-81
2023/10/14 12:03:40;;;;;;;1.73;1.30;;;23.30;56.60;;;;;;5080669;28;20267;-80
2023/10/14 12:06:14;;;;;;;1.40;1.00;;;23.20;56.50;;;;;;5080621;28;20200;-81
2023/10/14 12:08:45;;;;;;;1.50;0.90;;;23.10;56.00;;;;;;5081781;28;20339;-81
2023/10/14 12:11:22;;;;;;;1.05;0.85;;;23.10;56.20;;;;;;5082920;28;20196;-81
2023/10/14 12:14:03;;;;;;;1.67;0.80;;;23.00;56.10;;;;;;5075502;28;20227;-80
2023/10/14 12:22:24;;;;;;;1.08;0.73;;;22.90;55.70;;;;;;5078999;28;20187;-81
2023/10/14 12:27:51;;;;;;;2.42;0.70;;;22.70;55.80;;;;;;5066837;28;20218;-81
2023/10/14 12:30:46;;;;;;;0.60;0.60;;;22.70;56.10;;;;;;5067753;28;20593;-81
2023/10/14 12:33:31;;;;;;;1.23;0.70;;;22.60;56.30;;;;;;5063925;28;20228;-81
2023/10/14 12:36:14;;;;;;;1.25;0.65;;;22.60;56.80;;;;;;5067398;28;20204;-82
2023/10/14 12:38:56;;;;;;;0.60;0.60;;;22.20;57.80;;;;;;5070998;28;20250;-81
2023/10/14 12:41:28;;;;;;;1.02;0.65;;;22.10;58.70;;;;;;5086775;28;20253;-81
2023/10/14 12:44:00;;;;;;;0.80;0.60;;;22.10;58.70;;;;;;5089254;28;20551;-82
2023/10/14 12:47:11;;;;;;;1.25;0.70;;;22.20;58.90;;;;;;5087558;28;20290;-82
2023/10/14 12:50:02;;;;;;;0.50;0.50;;;22.20;58.90;;;;;;5070922;28;20200;-80
2023/10/14 12:52:34;;;;;;;1.05;0.50;;;22.10;59.40;;;;;;5086209;28;20557;-82
2023/10/14 12:55:13;;;;;;;1.52;0.45;;;22.00;59.70;;;;;;5077279;28;20180;-80
2023/10/14 12:57:54;;;;;;;0.57;0.57;;;21.90;60.50;;;;;;5075464;28;20211;-82
2023/10/14 13:00:31;;;;;;;0.65;0.50;;;22.00;60.60;;;;;;5076546;28;20560;-82
2023/10/14 13:03:09;;;;;;;1.65;0.70;;;21.80;61.00;;;;;;5064244;28;20204;-84
2023/10/14 13:05:46;;;;;;;3.65;0.80;;;21.80;61.60;;;;;;5075246;28;20192;-80
2023/10/14 13:08:19;;;;;;;1.02;0.70;;;21.60;62.60;;;;;;5074187;28;20282;-81
2023/10/14 13:10:50;;;;;;;3.80;0.70;;;21.50;63.10;;;;;;5074168;28;20193;-82
2023/10/14 13:13:21;;;;;;;1.10;0.55;;;21.40;63.80;;;;;;5075627;28;20329;-80
2023/10/14 13:15:54;;;;;;;2.13;0.73;;;21.30;64.50;;;;;;5076115;28;20603;-81
2023/10/14 13:18:31;;;;;;;1.80;0.68;;;21.30;64.90;;;;;;5074834;28;20265;-80
2023/10/14 13:21:05;;;;;;;2.97;0.70;;;21.20;65.00;;;;;;5074319;28;20225;-81
2023/10/14 13:23:38;;;;;;;2.35;0.60;;;21.20;66.20;;;;;;5075152;28;20289;-80
2023/10/14 13:26:11;;;;;;;2.80;0.80;;;21.20;66.30;;;;;;5063659;28;20226;-81
2023/10/14 13:28:45;;;;;;;1.42;0.70;;;21.10;66.80;;;;;;5075926;28;20556;-81
2023/10/14 13:31:17;;;;;;;1.98;0.80;;;21.10;67.50;;;;;;5067186;28;20761;-80
2023/10/14 13:33:50;;;;;;;1.10;0.57;;;21.00;68.10;;;;;;5074835;28;20415;-81
2023/10/14 13:36:28;;;;;;;1.83;0.70;;;21.00;68.40;;;;;;5070688;28;20289;-81
2023/10/14 13:39:07;;;;;;;2.15;0.65;;;21.10;69.00;;;;;;5074421;28;20706;-81
2023/10/14 13:41:38;;;;;;;2.63;0.57;;;21.10;69.10;;;;;;5074644;28;20195;-81
2023/10/14 13:44:11;;;;;;;0.80;0.47;;;21.20;69.00;;;;;;5079102;28;20196;-81
2023/10/14 13:46:44;;;;;;;0.68;0.40;;;21.20;69.70;;;;;;5078197;28;20540;-82
2023/10/14 13:49:23;;;;;;;1.40;0.60;;;21.20;70.10;;;;;;5074079;28;20207;-80
2023/10/14 13:51:58;;;;;;;1.80;0.60;;;21.10;70.50;;;;;;5076300;28;20201;-81
2023/10/14 13:54:32;;;;;;;1.85;0.60;;;21.00;71.10;;;;;;5074765;28;20348;-82
2023/10/14 13:57:11;;;;;;;1.70;0.70;;;21.00;70.80;;;;;;5074132;28;20196;-81
2023/10/14 13:59:43;;;;;;;4.60;0.70;;;20.90;71.60;;;;;;5073902;28;20702;-80
2023/10/14 14:02:16;;;;;;;4.10;0.65;;;20.70;72.10;;;;;;5073121;28;20277;-81
2023/10/14 14:04:53;;;;;;;2.35;0.85;;;20.60;72.60;;;;;;5072472;28;20621;-81
2023/10/14 14:07:30;;;;;;;2.22;0.63;;;20.50;73.20;;;;;;5071459;28;20227;-80